CMA CGM Castilla — V7LZ7 — position and weather

sailwx.info

Track history (hours):
 
Tides and Currents Weather Stations Pressure Air Temp Water Temp Dewpoint Dewpoint Depression Visibility Wind Speed Wind Dir Waves Ship Positions

CMA CGM Castilla

Last reported at 2015-May-01 01:15 UTC. Time now 2015-May-06 02:23 UTC.
Position N 34°20' W 012°22'.

Length 194 m; beam 28.2 m; draft 11.5 m.

Type: Ship (hazmat cat A). MMSI: 538090285.

Date/timePositionNaut miles runAvg speedWind from/ knotsBaromVisibWave heightAir tempDewpointWater temp
2015-May-01 01:15N 34°20' W 012°22'1318.3
2015-May-01 00:33N 34°24' W 012°08'1817.8
2015-Apr-30 23:33N 34°30' W 011°47'3718.1
2015-Apr-30 21:30N 34°41' W 011°04'1718.2
2015-Apr-30 20:33N 34°46' W 010°44'1918.4
2015-Apr-30 19:32N 34°52' W 010°22'1818.6
2015-Apr-30 18:33N 34°58' W 010°01'22817.3
2015-Apr-30 05:24N 35°59' W 005°32'1214.0
2015-Apr-30 04:33N 36°03' W 005°18'14016.8
2015-Apr-29 20:14N 36°25' W 002°26'3317.0
2015-Apr-29 18:16N 36°42' W 001°50'3118.1
2015-Apr-29 16:33N 37°02' W 001°21'1818.1
2015-Apr-29 15:33N 37°15' W 001°05'1818.3
2015-Apr-29 14:33N 37°27' W 000°48'1818.1
2015-Apr-29 13:33N 37°39' W 000°31'1717.2
2015-Apr-29 12:33N 37°53' W 000°18'1818.1
2015-Apr-29 11:33N 38°09' W 000°06'1818.0
2015-Apr-29 10:33N 38°24' E 000°06'6214.7
2015-Apr-29 06:20N 39°24' W 000°14'5 6.1
2015-Apr-29 05:31N 39°27' W 000°19'0 0.0
2015-Apr-29 04:31N 39°27' W 000°19'0 0.0
2015-Apr-29 03:31N 39°27' W 000°19'0 0.0
2015-Apr-29 02:31N 39°27' W 000°19'0 0.0
2015-Apr-29 01:31N 39°27' W 000°19'0 0.0
2015-Apr-29 00:25N 39°27' W 000°19'0 0.0
2015-Apr-28 23:31N 39°27' W 000°19'0 0.0
2015-Apr-28 22:22N 39°27' W 000°19'0 0.0
2015-Apr-28 21:31N 39°27' W 000°19'0 0.0
2015-Apr-28 20:31N 39°27' W 000°19'0 0.0
2015-Apr-28 19:31N 39°27' W 000°19'0 0.0
2015-Apr-28 18:31N 39°27' W 000°19'0 0.0
2015-Apr-28 17:31N 39°27' W 000°19'0 0.0
2015-Apr-28 16:31N 39°27' W 000°19'0 0.0
2015-Apr-28 15:28N 39°27' W 000°19'0 0.0
2015-Apr-28 14:28N 39°27' W 000°19'0 0.0
2015-Apr-28 13:31N 39°27' W 000°19'0 0.0
2015-Apr-28 12:33N 39°27' W 000°19'4 3.7
2015-Apr-28 11:33N 39°25' W 000°15'9 6.0
2015-Apr-28 10:03N 39°24' W 000°03'7 1.2
2015-Apr-28 04:33N 39°25' W 000°12'0 0.2
2015-Apr-28 03:33N 39°25' W 000°12'2 1.3
2015-Apr-28 02:17N 39°26' W 000°12'5514.7
2015-Apr-27 22:32N 40°04' E 000°40'1514.8
2015-Apr-27 21:33N 40°14' E 000°55'1514.7
2015-Apr-27 20:34N 40°23' E 001°09'1514.6
2015-Apr-27 19:33N 40°33' E 001°23'1414.4
2015-Apr-27 18:33N 40°44' E 001°36'1514.9
2015-Apr-27 17:33N 40°55' E 001°48'1515.1
2015-Apr-27 16:34N 41°07' E 002°01'1513.3
2015-Apr-27 15:28N 41°20' E 002°10'1 1.1
2015-Apr-27 14:30N 41°21' E 002°10'8 1.0
2015-Apr-27 06:08N 41°15' E 002°18'1 1.1
2015-Apr-27 05:33N 41°16' E 002°18'1 1.1
2015-Apr-27 04:23N 41°16' E 002°16'4 4.2
2015-Apr-27 03:23N 41°19' E 002°20'1915.0
2015-Apr-27 02:07N 41°28' E 002°42'814.8
2015-Apr-27 01:33N 41°32' E 002°52'4815.4
2015-Apr-26 22:24N 41°57' E 003°48'1214.0
2015-Apr-26 21:33N 42°05' E 003°60'1714.8
2015-Apr-26 20:24N 42°15' E 004°18'1314.4
2015-Apr-26 19:31N 42°23' E 004°31'5 5.3
2015-Apr-26 18:30N 42°26' E 004°37'1 1.3
2015-Apr-26 17:29N 42°25' E 004°39'1 1.3
2015-Apr-26 16:33N 42°24' E 004°40'1 1.3
2015-Apr-26 15:33N 42°23' E 004°41'2 1.3
2015-Apr-26 14:13N 42°22' E 004°43'1 1.0
2015-Apr-26 13:34N 42°21' E 004°43'1 1.0
2015-Apr-26 12:28N 42°20' E 004°44'1 1.0
2015-Apr-26 11:34N 42°20' E 004°45'1 0.9
2015-Apr-26 10:22N 42°19' E 004°45'1 0.8
2015-Apr-26 09:33N 42°18' E 004°46'1 1.0
2015-Apr-26 08:26N 42°18' E 004°47'3 2.8
2015-Apr-26 07:20N 42°19' E 004°51'13515.2
2015-Apr-25 22:25N 43°29' E 007°29'4515.6
2015-Apr-25 19:33N 43°56' E 008°18'1715.2
2015-Apr-25 18:27N 44°07' E 008°36'1415.5
2015-Apr-25 17:33N 44°16' E 008°51'8 8.4
2015-Apr-25 16:33N 44°24' E 008°54'0 0.1
2015-Apr-25 15:30N 44°24' E 008°54'0 0.0
2015-Apr-25 14:24N 44°24' E 008°54'0 0.0
2015-Apr-25 13:30N 44°24' E 008°54'0 0.0
2015-Apr-25 12:30N 44°24' E 008°54'0 0.0
2015-Apr-25 11:33N 44°24' E 008°54'0 0.0
2015-Apr-25 10:12N 44°24' E 008°54'0 0.0
2015-Apr-25 09:30N 44°24' E 008°54'0 0.0
2015-Apr-25 08:12N 44°24' E 008°54'0 0.0
2015-Apr-25 07:33N 44°24' E 008°54'0 0.0
2015-Apr-25 06:33N 44°24' E 008°54'0 0.0
2015-Apr-25 05:30N 44°24' E 008°54'0 0.0
2015-Apr-25 04:18N 44°24' E 008°54'0 0.0
2015-Apr-25 03:30N 44°24' E 008°54'0 0.0
2015-Apr-25 02:30N 44°24' E 008°54'0 0.0
2015-Apr-25 01:33N 44°24' E 008°54'0 0.0
2015-Apr-25 00:30N 44°24' E 008°54'0 0.0
2015-Apr-24 23:30N 44°24' E 008°54'0 0.0
2015-Apr-24 22:30N 44°24' E 008°54'0 0.0
2015-Apr-24 21:30N 44°24' E 008°54'0 0.0
2015-Apr-24 20:30N 44°24' E 008°54'3 3.4
2015-Apr-24 19:33N 44°22' E 008°57'1212.3
2015-Apr-24 18:33N 44°14' E 008°45'1514.6
2015-Apr-24 17:33N 44°05' E 009°00'1515.2
2015-Apr-24 16:34N 43°55' E 009°16'1515.3
2015-Apr-24 15:33N 43°45' E 009°32'1515.0
2015-Apr-24 14:33N 43°35' E 009°47'1414.4
2015-Apr-24 13:34N 43°30' E 010°06'9 9.4
2015-Apr-24 12:33N 43°34' E 010°18'1 0.6
2015-Apr-24 11:31N 43°34' E 010°18'0 0.0
2015-Apr-24 10:31N 43°34' E 010°18'0 0.0
2015-Apr-24 09:28N 43°34' E 010°18'0 0.0
2015-Apr-24 08:31N 43°34' E 010°18'0 0.0
2015-Apr-24 07:28N 43°34' E 010°18'0 0.0
2015-Apr-24 06:31N 43°34' E 010°18'0 0.0
2015-Apr-24 05:31N 43°34' E 010°18'3 2.6
2015-Apr-24 04:33N 43°32' E 010°17'2 1.9
2015-Apr-24 03:31N 43°30' E 010°16'0 0.0
2015-Apr-24 02:28N 43°30' E 010°16'0 0.0
2015-Apr-24 01:31N 43°30' E 010°16'0 0.0
2015-Apr-24 00:31N 43°30' E 010°16'0 0.0
2015-Apr-23 23:31N 43°30' E 010°16'0 0.0
2015-Apr-23 22:28N 43°30' E 010°16'0 0.0
2015-Apr-23 21:31N 43°30' E 010°16'0 0.0
2015-Apr-23 20:31N 43°30' E 010°16'0 0.0
2015-Apr-23 19:31N 43°30' E 010°16'0 0.0
2015-Apr-23 18:31N 43°30' E 010°16'0 0.0
2015-Apr-23 17:31N 43°30' E 010°16'0 0.0
2015-Apr-23 16:31N 43°30' E 010°16'0 0.0
2015-Apr-23 15:31N 43°30' E 010°16'0 0.0
2015-Apr-23 14:31N 43°30' E 010°16'0 0.0
2015-Apr-23 13:28N 43°30' E 010°16'0 0.0
2015-Apr-23 12:31N 43°30' E 010°16'0 0.0
2015-Apr-23 11:31N 43°30' E 010°16'0 0.0
2015-Apr-23 10:31N 43°30' E 010°16'0 0.1
2015-Apr-23 09:31N 43°30' E 010°16'0 0.0
2015-Apr-23 08:31N 43°30' E 010°16'0 0.0
2015-Apr-23 07:31N 43°30' E 010°16'0 0.0
2015-Apr-23 06:28N 43°30' E 010°16'0 0.0
2015-Apr-23 05:31N 43°30' E 010°16'0 0.0
2015-Apr-23 04:31N 43°30' E 010°16'0 0.1
2015-Apr-23 03:28N 43°30' E 010°16'0 0.1
2015-Apr-23 02:31N 43°30' E 010°16'0 0.0
2015-Apr-23 01:28N 43°30' E 010°16'0 0.1
2015-Apr-23 00:28N 43°30' E 010°16'0 0.0
2015-Apr-22 23:31N 43°30' E 010°16'0 0.0
2015-Apr-22 22:31N 43°30' E 010°16'0 0.1
2015-Apr-22 21:31N 43°30' E 010°16'0 0.1
2015-Apr-22 20:31N 43°30' E 010°16'0 0.0
2015-Apr-22 19:25N 43°30' E 010°16'0 0.0
2015-Apr-22 18:31N 43°30' E 010°16'0 0.0
2015-Apr-22 17:28N 43°30' E 010°16'0 0.0
2015-Apr-22 16:31N 43°30' E 010°16'0 0.0
2015-Apr-22 15:22N 43°30' E 010°16'0 0.0
2015-Apr-22 14:31N 43°30' E 010°16'0 0.0
2015-Apr-22 13:31N 43°30' E 010°16'0 0.0
2015-Apr-22 12:31N 43°30' E 010°16'0 0.0
2015-Apr-22 11:28N 43°30' E 010°16'0 0.1
2015-Apr-22 10:31N 43°30' E 010°16'4 3.7
2015-Apr-22 09:33N 43°28' E 010°13'5 4.8
2015-Apr-22 08:34N 43°23' E 010°12'1515.1
2015-Apr-22 07:33N 43°08' E 010°05'1515.1
2015-Apr-22 06:33N 42°54' E 009°59'3214.9
2015-Apr-22 04:25N 42°22' E 009°56'1614.7
2015-Apr-22 03:19N 42°06' E 010°02'1215.3
2015-Apr-22 02:32N 41°56' E 010°08'6014.8
2015-Apr-21 22:31N 40°59' E 010°35'2914.7
2015-Apr-21 20:33N 40°32' E 010°47'16114.6
2015-Apr-21 09:31N 38°00' E 011°56'1614.5
2015-Apr-21 08:26N 37°47' E 012°07'1716.8
2015-Apr-21 07:27N 37°37' E 012°23'  
Track history (hours):
 
Tides and Currents Weather Stations Pressure Air Temp Water Temp Dewpoint Dewpoint Depression Visibility Wind Speed Wind Dir Waves Ship Positions

CMA CGM Castilla

Last reported at 2015-May-01 01:15 UTC. Time now 2015-May-06 02:23 UTC.
Position N 34°20' W 012°22'.

Length 194 m; beam 28.2 m; draft 11.5 m.

Type: Ship (hazmat cat A). MMSI: 538090285.

Date/timePositionNaut miles runAvg speedWind from/ knotsBaromVisibWave heightAir tempDewpointWater temp
2015-May-01 01:15N 34°20' W 012°22'1318.3
2015-May-01 00:33N 34°24' W 012°08'1817.8
2015-Apr-30 23:33N 34°30' W 011°47'3718.1
2015-Apr-30 21:30N 34°41' W 011°04'1718.2
2015-Apr-30 20:33N 34°46' W 010°44'1918.4
2015-Apr-30 19:32N 34°52' W 010°22'1818.6
2015-Apr-30 18:33N 34°58' W 010°01'22817.3
2015-Apr-30 05:24N 35°59' W 005°32'1214.0
2015-Apr-30 04:33N 36°03' W 005°18'14016.8
2015-Apr-29 20:14N 36°25' W 002°26'3317.0
2015-Apr-29 18:16N 36°42' W 001°50'3118.1
2015-Apr-29 16:33N 37°02' W 001°21'1818.1
2015-Apr-29 15:33N 37°15' W 001°05'1818.3
2015-Apr-29 14:33N 37°27' W 000°48'1818.1
2015-Apr-29 13:33N 37°39' W 000°31'1717.2
2015-Apr-29 12:33N 37°53' W 000°18'1818.1
2015-Apr-29 11:33N 38°09' W 000°06'1818.0
2015-Apr-29 10:33N 38°24' E 000°06'6214.7
2015-Apr-29 06:20N 39°24' W 000°14'5 6.1
2015-Apr-29 05:31N 39°27' W 000°19'0 0.0
2015-Apr-29 04:31N 39°27' W 000°19'0 0.0
2015-Apr-29 03:31N 39°27' W 000°19'0 0.0
2015-Apr-29 02:31N 39°27' W 000°19'0 0.0
2015-Apr-29 01:31N 39°27' W 000°19'0 0.0
2015-Apr-29 00:25N 39°27' W 000°19'0 0.0
2015-Apr-28 23:31N 39°27' W 000°19'0 0.0
2015-Apr-28 22:22N 39°27' W 000°19'0 0.0
2015-Apr-28 21:31N 39°27' W 000°19'0 0.0
2015-Apr-28 20:31N 39°27' W 000°19'0 0.0
2015-Apr-28 19:31N 39°27' W 000°19'0 0.0
2015-Apr-28 18:31N 39°27' W 000°19'0 0.0
2015-Apr-28 17:31N 39°27' W 000°19'0 0.0
2015-Apr-28 16:31N 39°27' W 000°19'0 0.0
2015-Apr-28 15:28N 39°27' W 000°19'0 0.0
2015-Apr-28 14:28N 39°27' W 000°19'0 0.0
2015-Apr-28 13:31N 39°27' W 000°19'0 0.0
2015-Apr-28 12:33N 39°27' W 000°19'4 3.7
2015-Apr-28 11:33N 39°25' W 000°15'9 6.0
2015-Apr-28 10:03N 39°24' W 000°03'7 1.2
2015-Apr-28 04:33N 39°25' W 000°12'0 0.2
2015-Apr-28 03:33N 39°25' W 000°12'2 1.3
2015-Apr-28 02:17N 39°26' W 000°12'5514.7
2015-Apr-27 22:32N 40°04' E 000°40'1514.8
2015-Apr-27 21:33N 40°14' E 000°55'1514.7
2015-Apr-27 20:34N 40°23' E 001°09'1514.6
2015-Apr-27 19:33N 40°33' E 001°23'1414.4
2015-Apr-27 18:33N 40°44' E 001°36'1514.9
2015-Apr-27 17:33N 40°55' E 001°48'1515.1
2015-Apr-27 16:34N 41°07' E 002°01'1513.3
2015-Apr-27 15:28N 41°20' E 002°10'1 1.1
2015-Apr-27 14:30N 41°21' E 002°10'8 1.0
2015-Apr-27 06:08N 41°15' E 002°18'1 1.1
2015-Apr-27 05:33N 41°16' E 002°18'1 1.1
2015-Apr-27 04:23N 41°16' E 002°16'4 4.2
2015-Apr-27 03:23N 41°19' E 002°20'1915.0
2015-Apr-27 02:07N 41°28' E 002°42'814.8
2015-Apr-27 01:33N 41°32' E 002°52'4815.4
2015-Apr-26 22:24N 41°57' E 003°48'1214.0
2015-Apr-26 21:33N 42°05' E 003°60'1714.8
2015-Apr-26 20:24N 42°15' E 004°18'1314.4
2015-Apr-26 19:31N 42°23' E 004°31'5 5.3
2015-Apr-26 18:30N 42°26' E 004°37'1 1.3
2015-Apr-26 17:29N 42°25' E 004°39'1 1.3
2015-Apr-26 16:33N 42°24' E 004°40'1 1.3
2015-Apr-26 15:33N 42°23' E 004°41'2 1.3
2015-Apr-26 14:13N 42°22' E 004°43'1 1.0
2015-Apr-26 13:34N 42°21' E 004°43'1 1.0
2015-Apr-26 12:28N 42°20' E 004°44'1 1.0
2015-Apr-26 11:34N 42°20' E 004°45'1 0.9
2015-Apr-26 10:22N 42°19' E 004°45'1 0.8
2015-Apr-26 09:33N 42°18' E 004°46'1 1.0
2015-Apr-26 08:26N 42°18' E 004°47'3 2.8
2015-Apr-26 07:20N 42°19' E 004°51'13515.2
2015-Apr-25 22:25N 43°29' E 007°29'4515.6
2015-Apr-25 19:33N 43°56' E 008°18'1715.2
2015-Apr-25 18:27N 44°07' E 008°36'1415.5
2015-Apr-25 17:33N 44°16' E 008°51'8 8.4
2015-Apr-25 16:33N 44°24' E 008°54'0 0.1
2015-Apr-25 15:30N 44°24' E 008°54'0 0.0
2015-Apr-25 14:24N 44°24' E 008°54'0 0.0
2015-Apr-25 13:30N 44°24' E 008°54'0 0.0
2015-Apr-25 12:30N 44°24' E 008°54'0 0.0
2015-Apr-25 11:33N 44°24' E 008°54'0 0.0
2015-Apr-25 10:12N 44°24' E 008°54'0 0.0
2015-Apr-25 09:30N 44°24' E 008°54'0 0.0
2015-Apr-25 08:12N 44°24' E 008°54'0 0.0
2015-Apr-25 07:33N 44°24' E 008°54'0 0.0
2015-Apr-25 06:33N 44°24' E 008°54'0 0.0
2015-Apr-25 05:30N 44°24' E 008°54'0 0.0
2015-Apr-25 04:18N 44°24' E 008°54'0 0.0
2015-Apr-25 03:30N 44°24' E 008°54'0 0.0
2015-Apr-25 02:30N 44°24' E 008°54'0 0.0
2015-Apr-25 01:33N 44°24' E 008°54'0 0.0
2015-Apr-25 00:30N 44°24' E 008°54'0 0.0
2015-Apr-24 23:30N 44°24' E 008°54'0 0.0
2015-Apr-24 22:30N 44°24' E 008°54'0 0.0
2015-Apr-24 21:30N 44°24' E 008°54'0 0.0
2015-Apr-24 20:30N 44°24' E 008°54'3 3.4
2015-Apr-24 19:33N 44°22' E 008°57'1212.3
2015-Apr-24 18:33N 44°14' E 008°45'1514.6
2015-Apr-24 17:33N 44°05' E 009°00'1515.2
2015-Apr-24 16:34N 43°55' E 009°16'1515.3
2015-Apr-24 15:33N 43°45' E 009°32'1515.0
2015-Apr-24 14:33N 43°35' E 009°47'1414.4
2015-Apr-24 13:34N 43°30' E 010°06'9 9.4
2015-Apr-24 12:33N 43°34' E 010°18'1 0.6
2015-Apr-24 11:31N 43°34' E 010°18'0 0.0
2015-Apr-24 10:31N 43°34' E 010°18'0 0.0
2015-Apr-24 09:28N 43°34' E 010°18'0 0.0
2015-Apr-24 08:31N 43°34' E 010°18'0 0.0
2015-Apr-24 07:28N 43°34' E 010°18'0 0.0
2015-Apr-24 06:31N 43°34' E 010°18'0 0.0
2015-Apr-24 05:31N 43°34' E 010°18'3 2.6
2015-Apr-24 04:33N 43°32' E 010°17'2 1.9
2015-Apr-24 03:31N 43°30' E 010°16'0 0.0
2015-Apr-24 02:28N 43°30' E 010°16'0 0.0
2015-Apr-24 01:31N 43°30' E 010°16'0 0.0
2015-Apr-24 00:31N 43°30' E 010°16'0 0.0
2015-Apr-23 23:31N 43°30' E 010°16'0 0.0
2015-Apr-23 22:28N 43°30' E 010°16'0 0.0
2015-Apr-23 21:31N 43°30' E 010°16'0 0.0
2015-Apr-23 20:31N 43°30' E 010°16'0 0.0
2015-Apr-23 19:31N 43°30' E 010°16'0 0.0
2015-Apr-23 18:31N 43°30' E 010°16'0 0.0
2015-Apr-23 17:31N 43°30' E 010°16'0 0.0
2015-Apr-23 16:31N 43°30' E 010°16'0 0.0
2015-Apr-23 15:31N 43°30' E 010°16'0 0.0
2015-Apr-23 14:31N 43°30' E 010°16'0 0.0
2015-Apr-23 13:28N 43°30' E 010°16'0 0.0
2015-Apr-23 12:31N 43°30' E 010°16'0 0.0
2015-Apr-23 11:31N 43°30' E 010°16'0 0.0
2015-Apr-23 10:31N 43°30' E 010°16'0 0.1
2015-Apr-23 09:31N 43°30' E 010°16'0 0.0
2015-Apr-23 08:31N 43°30' E 010°16'0 0.0
2015-Apr-23 07:31N 43°30' E 010°16'0 0.0
2015-Apr-23 06:28N 43°30' E 010°16'0 0.0
2015-Apr-23 05:31N 43°30' E 010°16'0 0.0
2015-Apr-23 04:31N 43°30' E 010°16'0 0.1
2015-Apr-23 03:28N 43°30' E 010°16'0 0.1
2015-Apr-23 02:31N 43°30' E 010°16'0 0.0
2015-Apr-23 01:28N 43°30' E 010°16'0 0.1
2015-Apr-23 00:28N 43°30' E 010°16'0 0.0
2015-Apr-22 23:31N 43°30' E 010°16'0 0.0
2015-Apr-22 22:31N 43°30' E 010°16'0 0.1
2015-Apr-22 21:31N 43°30' E 010°16'0 0.1
2015-Apr-22 20:31N 43°30' E 010°16'0 0.0
2015-Apr-22 19:25N 43°30' E 010°16'0 0.0
2015-Apr-22 18:31N 43°30' E 010°16'0 0.0
2015-Apr-22 17:28N 43°30' E 010°16'0 0.0
2015-Apr-22 16:31N 43°30' E 010°16'0 0.0
2015-Apr-22 15:22N 43°30' E 010°16'0 0.0
2015-Apr-22 14:31N 43°30' E 010°16'0 0.0
2015-Apr-22 13:31N 43°30' E 010°16'0 0.0
2015-Apr-22 12:31N 43°30' E 010°16'0 0.0
2015-Apr-22 11:28N 43°30' E 010°16'0 0.1
2015-Apr-22 10:31N 43°30' E 010°16'4 3.7
2015-Apr-22 09:33N 43°28' E 010°13'5 4.8
2015-Apr-22 08:34N 43°23' E 010°12'1515.1
2015-Apr-22 07:33N 43°08' E 010°05'1515.1
2015-Apr-22 06:33N 42°54' E 009°59'3214.9
2015-Apr-22 04:25N 42°22' E 009°56'1614.7
2015-Apr-22 03:19N 42°06' E 010°02'1215.3
2015-Apr-22 02:32N 41°56' E 010°08'6014.8
2015-Apr-21 22:31N 40°59' E 010°35'2914.7
2015-Apr-21 20:33N 40°32' E 010°47'16114.6
2015-Apr-21 09:31N 38°00' E 011°56'1614.5
2015-Apr-21 08:26N 37°47' E 012°07'1716.8
2015-Apr-21 07:27N 37°37' E 012°23'  

Dump ship's entire track history